createdAt,value
2022-11-20T00:01:09.985Z,7.60
2022-11-20T00:03:36.506Z,8.45
2022-11-20T00:06:04.354Z,7.50
2022-11-20T00:08:30.837Z,8.40
2022-11-20T00:10:57.320Z,8.02
2022-11-20T00:13:24.190Z,7.40
2022-11-20T00:15:58.335Z,7.15
2022-11-20T00:18:24.908Z,6.82
2022-11-20T00:20:51.273Z,7.18
2022-11-20T00:23:17.938Z,7.30
2022-11-20T00:25:44.477Z,6.30
2022-11-20T00:28:10.829Z,6.28
2022-11-20T00:30:37.233Z,7.28
2022-11-20T00:33:03.847Z,6.13
2022-11-20T00:35:30.839Z,6.88
2022-11-20T00:37:57.285Z,6.70
2022-11-20T00:40:23.654Z,7.20
2022-11-20T00:42:50.185Z,7.20
2022-11-20T00:45:16.547Z,7.88
2022-11-20T00:47:42.955Z,6.70
2022-11-20T00:50:09.721Z,7.20
2022-11-20T00:52:36.099Z,6.88
2022-11-20T00:55:02.554Z,7.65
2022-11-20T00:57:28.981Z,7.10
2022-11-20T00:59:55.374Z,6.90
2022-11-20T01:02:21.846Z,7.22
2022-11-20T01:04:48.241Z,5.72
2022-11-20T01:07:14.718Z,6.20
2022-11-20T01:09:41.281Z,5.40
2022-11-20T01:12:07.631Z,6.43
2022-11-20T01:14:34.081Z,6.13
2022-11-20T01:17:00.797Z,6.28
2022-11-20T01:19:27.125Z,5.90
2022-11-20T01:21:55.838Z,5.72
2022-11-20T01:24:23.154Z,5.85
2022-11-20T01:26:51.965Z,5.25
2022-11-20T01:29:22.084Z,5.67
2022-11-20T01:31:49.200Z,5.30
2022-11-20T01:34:19.449Z,6.25
2022-11-20T01:36:46.895Z,5.82
2022-11-20T01:39:22.854Z,5.93
2022-11-20T01:42:10.325Z,4.57
2022-11-20T01:45:00.376Z,5.63
2022-11-20T01:47:36.380Z,5.85
2022-11-20T01:50:19.746Z,6.30
2022-11-20T01:52:55.926Z,5.30
2022-11-20T01:55:26.976Z,6.18
2022-11-20T01:57:53.920Z,6.93
2022-11-20T02:00:21.552Z,5.88
2022-11-20T02:03:06.393Z,6.10
2022-11-20T02:05:37.785Z,5.80
2022-11-20T02:08:06.777Z,5.80
2022-11-20T02:10:34.407Z,5.72
2022-11-20T02:13:19.540Z,5.50
2022-11-20T02:15:46.949Z,5.57
2022-11-20T02:18:16.927Z,5.45
2022-11-20T02:20:46.236Z,5.72
2022-11-20T02:23:16.469Z,5.23
2022-11-20T02:25:43.797Z,4.85
2022-11-20T02:28:11.131Z,6.25
2022-11-20T02:30:37.578Z,5.60
2022-11-20T02:33:04.059Z,4.53
2022-11-20T02:35:30.456Z,5.07
2022-11-20T02:38:02.497Z,5.78
2022-11-20T02:40:29.687Z,5.63
2022-11-20T02:42:57.797Z,4.82
2022-11-20T02:45:25.515Z,5.10
2022-11-20T02:47:52.625Z,5.53
2022-11-20T02:50:19.363Z,5.97
2022-11-20T02:52:45.837Z,5.20
2022-11-20T02:55:12.602Z,5.90
2022-11-20T02:57:39.057Z,5.25
2022-11-20T03:00:07.700Z,4.82
2022-11-20T03:02:34.319Z,5.07
2022-11-20T03:05:00.665Z,5.70
2022-11-20T03:07:27.076Z,4.88
2022-11-20T03:09:53.473Z,5.32
2022-11-20T03:12:19.820Z,5.17
2022-11-20T03:14:51.620Z,5.55
2022-11-20T03:17:19.321Z,5.22
2022-11-20T03:19:45.689Z,6.05
2022-11-20T03:22:12.181Z,4.30
2022-11-20T03:24:38.583Z,4.20
2022-11-20T03:27:05.209Z,5.10
2022-11-20T03:29:31.551Z,5.72
2022-11-20T03:31:57.970Z,5.07
2022-11-20T03:34:24.583Z,4.67
2022-11-20T03:36:50.964Z,5.30
2022-11-20T03:39:17.323Z,5.60
2022-11-20T03:41:44.324Z,5.10
2022-11-20T03:44:12.060Z,4.75
2022-11-20T03:46:38.838Z,5.05
2022-11-20T03:49:05.771Z,5.70
2022-11-20T03:51:34.764Z,5.00
2022-11-20T03:54:04.347Z,4.75
2022-11-20T03:56:33.857Z,4.78
2022-11-20T03:59:00.447Z,5.38
2022-11-20T04:01:29.347Z,4.90
2022-11-20T04:03:57.390Z,4.88
2022-11-20T04:06:30.534Z,5.07
2022-11-20T04:08:58.623Z,4.72
2022-11-20T04:11:30.265Z,5.80
2022-11-20T04:14:02.364Z,4.65
2022-11-20T04:16:34.664Z,5.03
2022-11-20T04:19:03.266Z,4.45
2022-11-20T04:21:30.278Z,4.80
2022-11-20T04:23:57.202Z,4.50
2022-11-20T04:26:26.687Z,4.88
2022-11-20T04:28:53.128Z,4.70
2022-11-20T04:31:23.197Z,5.20
2022-11-20T04:33:49.826Z,5.00
2022-11-20T04:36:25.879Z,5.38
2022-11-20T04:38:59.436Z,4.80
2022-11-20T04:41:28.978Z,5.20
2022-11-20T04:44:00.469Z,4.97
2022-11-20T04:46:28.380Z,5.07
2022-11-20T04:48:55.265Z,4.83
2022-11-20T04:51:21.616Z,5.72
2022-11-20T04:53:48.342Z,4.57
2022-11-20T04:56:15.329Z,4.78
2022-11-20T04:58:41.872Z,5.15
2022-11-20T05:01:14.626Z,5.20
2022-11-20T05:03:42.873Z,4.60
2022-11-20T05:06:11.698Z,5.20
2022-11-20T05:08:38.554Z,5.30
2022-11-20T05:11:11.075Z,4.97
2022-11-20T05:13:38.181Z,4.93
2022-11-20T05:16:14.327Z,5.10
2022-11-20T05:18:41.825Z,5.03
2022-11-20T05:21:09.049Z,5.05
2022-11-20T05:23:36.014Z,4.82
2022-11-20T05:26:02.626Z,5.70
2022-11-20T05:28:31.150Z,4.43
2022-11-20T05:31:04.595Z,4.72
2022-11-20T05:33:31.002Z,4.97
2022-11-20T05:36:01.090Z,5.20
2022-11-20T05:38:27.540Z,4.85
2022-11-20T05:40:53.944Z,4.88
2022-11-20T05:43:20.272Z,5.47
2022-11-20T05:45:55.729Z,4.70
2022-11-20T05:48:22.177Z,5.32
2022-11-20T05:50:49.423Z,4.97
2022-11-20T05:53:15.878Z,5.47
2022-11-20T05:55:42.552Z,5.20
2022-11-20T05:58:08.996Z,5.38
2022-11-20T06:00:36.308Z,5.55
2022-11-20T06:03:02.994Z,5.40
2022-11-20T06:05:29.493Z,5.27
2022-11-20T06:07:55.913Z,5.82
2022-11-20T06:10:22.329Z,5.10
2022-11-20T06:12:48.681Z,6.03
2022-11-20T06:15:15.048Z,5.30
2022-11-20T06:17:41.410Z,5.25
2022-11-20T06:20:08.267Z,5.32
2022-11-20T06:22:34.591Z,5.25
2022-11-20T06:25:00.955Z,4.53
2022-11-20T06:27:28.163Z,4.55
2022-11-20T06:29:54.569Z,5.30
2022-11-20T06:32:21.001Z,5.20
2022-11-20T06:34:47.408Z,5.33
2022-11-20T06:37:13.806Z,4.63
2022-11-20T06:39:40.347Z,5.10
2022-11-20T06:42:06.704Z,5.32
2022-11-20T06:44:33.720Z,6.37
2022-11-20T06:47:00.620Z,5.53
2022-11-20T06:49:27.023Z,6.35
2022-11-20T06:51:53.422Z,5.57
2022-11-20T06:54:19.787Z,5.97
2022-11-20T06:56:49.658Z,5.72
2022-11-20T06:59:16.083Z,5.47
2022-11-20T07:01:42.439Z,5.13
2022-11-20T07:04:08.853Z,5.85
2022-11-20T07:06:35.282Z,5.95
2022-11-20T07:09:02.550Z,5.57
2022-11-20T07:11:28.914Z,5.07
2022-11-20T07:13:55.431Z,4.82
2022-11-20T07:16:21.756Z,5.00
2022-11-20T07:18:50.794Z,5.63
2022-11-20T07:21:17.669Z,5.90
2022-11-20T07:23:44.027Z,5.80
2022-11-20T07:26:12.298Z,5.00
2022-11-20T07:28:39.846Z,4.55
2022-11-20T07:31:08.317Z,5.50
2022-11-20T07:33:34.864Z,5.65
2022-11-20T07:36:01.496Z,5.47
2022-11-20T07:38:28.265Z,5.50
2022-11-20T07:40:56.633Z,5.03
2022-11-20T07:43:23.016Z,4.88
2022-11-20T07:45:49.571Z,5.95
2022-11-20T07:48:16.052Z,5.55
2022-11-20T07:50:42.647Z,5.53
2022-11-20T07:53:09.142Z,6.13
2022-11-20T07:55:35.587Z,5.43
2022-11-20T07:58:01.949Z,6.00
2022-11-20T08:00:28.924Z,5.95
2022-11-20T08:02:55.740Z,7.10
2022-11-20T08:05:22.893Z,5.78
2022-11-20T08:07:49.351Z,6.90
2022-11-20T08:10:17.364Z,5.32
2022-11-20T08:13:11.492Z,6.10
2022-11-20T08:15:42.791Z,5.65
2022-11-20T08:18:34.673Z,6.65
2022-11-20T08:21:08.428Z,6.07
2022-11-20T08:23:41.826Z,6.57
2022-11-20T08:26:08.723Z,6.20
2022-11-20T08:28:35.774Z,6.65
2022-11-20T08:31:03.342Z,6.13
2022-11-20T08:33:30.805Z,6.50
2022-11-20T08:36:02.246Z,6.38
2022-11-20T08:38:28.819Z,6.82
2022-11-20T08:41:21.589Z,6.63
2022-11-20T08:43:48.340Z,5.90
2022-11-20T08:46:15.229Z,7.15
2022-11-20T08:48:42.047Z,6.85
2022-11-20T08:51:08.402Z,6.78
2022-11-20T08:53:34.855Z,6.43
2022-11-20T08:56:01.822Z,6.05
2022-11-20T08:58:28.460Z,7.20
2022-11-20T09:00:54.928Z,7.10
2022-11-20T09:03:21.365Z,7.17
2022-11-20T09:05:47.752Z,7.15
2022-11-20T09:08:14.249Z,7.32
2022-11-20T09:10:40.827Z,7.45
2022-11-20T09:13:07.414Z,6.93
2022-11-20T09:15:34.955Z,7.27
2022-11-20T09:18:03.672Z,6.85
2022-11-20T09:20:31.139Z,7.25
2022-11-20T09:22:58.833Z,8.02
2022-11-20T09:25:25.767Z,6.57
2022-11-20T09:27:59.572Z,6.90
2022-11-20T09:30:26.826Z,7.32
2022-11-20T09:32:53.383Z,7.82
2022-11-20T09:35:20.473Z,7.30
2022-11-20T09:37:47.418Z,8.20
2022-11-20T09:40:29.800Z,7.15
2022-11-20T09:43:18.905Z,7.68
2022-11-20T09:45:57.851Z,7.28
2022-11-20T09:48:43.581Z,7.30
2022-11-20T09:51:13.080Z,7.03
2022-11-20T09:54:10.940Z,7.55
2022-11-20T09:56:43.325Z,6.70
2022-11-20T09:59:23.646Z,7.88
2022-11-20T10:01:51.242Z,7.60
2022-11-20T10:04:20.875Z,7.57
2022-11-20T10:09:57.855Z,7.18
2022-11-20T10:12:42.840Z,7.13
2022-11-20T10:15:35.576Z,7.30
2022-11-20T10:18:04.947Z,8.00
2022-11-20T10:20:58.247Z,7.43
2022-11-20T10:23:43.954Z,8.07
2022-11-20T10:26:23.912Z,7.82
2022-11-20T10:29:16.848Z,8.40
2022-11-20T10:31:57.734Z,7.85
2022-11-20T10:34:30.645Z,8.55
2022-11-20T10:37:04.866Z,7.75
2022-11-20T10:39:38.911Z,7.90
2022-11-20T10:42:12.178Z,8.40
2022-11-20T10:45:06.079Z,7.75
2022-11-20T10:47:34.634Z,8.48
2022-11-20T10:50:10.693Z,7.68
2022-11-20T10:52:37.079Z,8.63
2022-11-20T10:55:18.216Z,8.30
2022-11-20T10:58:01.083Z,8.30
2022-11-20T11:00:27.415Z,8.43
2022-11-20T11:02:58.724Z,8.82
2022-11-20T11:05:37.525Z,9.60
2022-11-20T11:08:06.336Z,8.50
2022-11-20T11:10:54.082Z,9.90
2022-11-20T11:13:21.771Z,9.60
2022-11-20T11:15:48.204Z,8.65
2022-11-20T11:18:27.804Z,8.80
2022-11-20T11:20:55.716Z,8.87
2022-11-20T11:23:40.781Z,9.75
2022-11-20T11:26:22.724Z,9.23
2022-11-20T11:28:56.690Z,10.05
2022-11-20T11:31:24.894Z,8.88
2022-11-20T11:33:51.338Z,9.60
2022-11-20T11:36:22.497Z,9.88
2022-11-20T11:38:53.249Z,9.52
2022-11-20T11:41:39.994Z,10.35
2022-11-20T11:44:40.853Z,10.02
2022-11-20T11:47:20.613Z,9.43
2022-11-20T11:49:46.956Z,9.32
2022-11-20T11:52:17.356Z,10.65
2022-11-20T11:54:46.637Z,9.98
2022-11-20T11:57:27.763Z,10.32
2022-11-20T12:00:14.641Z,10.47
2022-11-20T12:02:46.987Z,9.80
2022-11-20T12:05:21.815Z,10.60
2022-11-20T12:07:54.904Z,10.48
2022-11-20T12:10:57.225Z,10.93
2022-11-20T12:13:54.493Z,10.60
2022-11-20T12:16:21.691Z,10.93
2022-11-20T12:18:53.374Z,10.32
2022-11-20T12:21:37.839Z,10.10
2022-11-20T12:24:07.571Z,10.52
2022-11-20T12:27:15.043Z,11.17
2022-11-20T12:30:11.221Z,11.15
2022-11-20T12:32:40.524Z,10.75
2022-11-20T12:35:15.434Z,11.20
2022-11-20T12:38:04.258Z,10.60
2022-11-20T12:41:05.974Z,10.43
2022-11-20T12:43:58.842Z,11.00
2022-11-20T12:46:48.913Z,10.95
2022-11-20T12:49:31.570Z,11.35
2022-11-20T12:51:57.862Z,10.82
2022-11-20T12:54:41.124Z,10.80
2022-11-20T12:57:29.980Z,10.85
2022-11-20T13:00:09.212Z,10.75
2022-11-20T13:03:14.030Z,12.68
2022-11-20T13:05:52.539Z,11.48
2022-11-20T13:08:28.768Z,10.53
2022-11-20T13:11:01.193Z,11.65
2022-11-20T13:13:43.985Z,11.32
2022-11-20T13:16:25.060Z,10.27
2022-11-20T13:18:51.800Z,10.57
2022-11-20T13:21:23.651Z,10.60
2022-11-20T13:23:50.162Z,10.63
2022-11-20T13:26:20.866Z,11.48
2022-11-20T13:28:49.387Z,11.13
2022-11-20T13:31:36.527Z,10.27
2022-11-20T13:34:07.281Z,11.03
2022-11-20T13:36:35.941Z,10.65
2022-11-20T13:39:02.320Z,10.32
2022-11-20T13:41:38.756Z,10.50
2022-11-20T13:44:15.851Z,10.90
2022-11-20T13:46:45.811Z,11.30
2022-11-20T13:49:43.849Z,12.77
2022-11-20T13:52:39.484Z,11.20
2022-11-20T13:55:20.976Z,10.52
2022-11-20T13:58:05.710Z,10.85
2022-11-20T14:00:32.446Z,10.70
2022-11-20T14:03:28.381Z,11.23
2022-11-20T14:06:15.615Z,10.73
2022-11-20T14:08:46.855Z,10.70
2022-11-20T14:11:22.266Z,11.98
2022-11-20T14:14:05.058Z,10.30
2022-11-20T14:16:37.628Z,10.50
2022-11-20T14:19:22.925Z,11.20
2022-11-20T14:22:12.070Z,11.05
2022-11-20T14:24:38.597Z,10.38
2022-11-20T14:27:05.277Z,11.47
2022-11-20T14:29:37.252Z,9.95
2022-11-20T14:32:04.752Z,11.35
2022-11-20T14:34:33.519Z,10.30
2022-11-20T14:37:02.646Z,10.68
2022-11-20T14:39:43.161Z,9.50
2022-11-20T14:42:17.962Z,11.40
2022-11-20T14:44:45.448Z,10.48
2022-11-20T14:47:14.254Z,10.15
2022-11-20T14:49:41.498Z,11.98
2022-11-20T14:52:17.612Z,10.67
2022-11-20T14:54:46.204Z,10.68
2022-11-20T14:57:22.249Z,11.68
2022-11-20T14:59:48.678Z,11.50
2022-11-20T15:02:15.109Z,11.13
2022-11-20T15:04:49.368Z,11.20
2022-11-20T15:07:41.020Z,10.55
2022-11-20T15:10:09.275Z,11.18
2022-11-20T15:12:38.925Z,11.38
2022-11-20T15:15:06.697Z,12.85
2022-11-20T15:17:37.818Z,11.80
2022-11-20T15:20:12.672Z,12.15
2022-11-20T15:22:39.074Z,11.65
2022-11-20T15:25:14.316Z,11.00
2022-11-20T15:27:40.840Z,10.52
2022-11-20T15:30:17.737Z,11.50
2022-11-20T15:32:45.136Z,10.50
2022-11-20T15:35:12.134Z,11.57
2022-11-20T15:37:39.190Z,11.27
2022-11-20T15:40:06.838Z,11.60
2022-11-20T15:42:34.333Z,10.97
2022-11-20T15:45:01.097Z,11.07
2022-11-20T15:47:36.880Z,11.35
2022-11-20T15:50:03.813Z,11.60
2022-11-20T15:52:36.302Z,11.77
2022-11-20T15:55:11.218Z,11.40
2022-11-20T15:57:37.624Z,10.50
2022-11-20T16:00:04.572Z,11.18
2022-11-20T16:02:30.967Z,10.43
2022-11-20T16:04:57.316Z,10.77
2022-11-20T16:07:23.845Z,11.23
2022-11-20T16:09:50.240Z,11.38
2022-11-20T16:12:36.624Z,10.65
2022-11-20T16:15:21.600Z,11.57
2022-11-20T16:17:47.958Z,11.82
2022-11-20T16:20:14.287Z,11.40
2022-11-20T16:22:40.695Z,10.95
2022-11-20T16:25:07.827Z,11.77
2022-11-20T16:27:34.611Z,11.93
2022-11-20T16:30:00.944Z,11.90
2022-11-20T16:32:29.894Z,12.00
2022-11-20T16:34:56.513Z,12.38
2022-11-20T16:37:23.003Z,12.23
2022-11-20T16:39:49.755Z,12.90
2022-11-20T16:42:16.086Z,11.82
2022-11-20T16:44:46.840Z,10.93
2022-11-20T16:47:13.499Z,12.32
2022-11-20T16:49:39.849Z,10.98
2022-11-20T16:52:09.294Z,11.05
2022-11-20T16:54:35.651Z,11.02
2022-11-20T16:57:02.057Z,10.77
2022-11-20T16:59:28.423Z,10.75
2022-11-20T17:01:55.001Z,11.63
2022-11-20T17:04:22.010Z,10.07
2022-11-20T17:06:48.595Z,12.68
2022-11-20T17:09:15.058Z,11.17
2022-11-20T17:11:41.875Z,11.60
2022-11-20T17:14:14.436Z,11.68
2022-11-20T17:16:47.535Z,12.07
2022-11-20T17:19:14.866Z,11.18
2022-11-20T17:21:41.364Z,11.10
2022-11-20T17:24:10.609Z,11.40
2022-11-20T17:26:39.006Z,11.80
2022-11-20T17:29:07.662Z,11.18
2022-11-20T17:31:35.014Z,11.05
2022-11-20T17:34:02.324Z,12.77
2022-11-20T17:36:30.013Z,11.75
2022-11-20T17:38:56.825Z,10.80
2022-11-20T17:41:25.517Z,11.55
2022-11-20T17:43:56.968Z,11.68
2022-11-20T17:46:25.982Z,11.37
2022-11-20T17:48:52.594Z,12.18
2022-11-20T17:51:21.156Z,10.98
2022-11-20T17:53:53.431Z,12.25
2022-11-20T17:56:39.011Z,11.15
2022-11-20T17:59:06.449Z,12.20
2022-11-20T18:01:33.028Z,12.75
2022-11-20T18:03:59.701Z,11.23
2022-11-20T18:06:28.566Z,10.25
2022-11-20T18:08:55.428Z,11.07
2022-11-20T18:11:23.468Z,10.80
2022-11-20T18:14:11.246Z,10.10
2022-11-20T18:16:42.887Z,10.30
2022-11-20T18:19:11.441Z,9.77
2022-11-20T18:21:37.960Z,10.70
2022-11-20T18:24:04.645Z,11.10
2022-11-20T18:26:31.103Z,10.23
2022-11-20T18:28:57.859Z,10.07
2022-11-20T18:31:24.324Z,11.00
2022-11-20T18:33:52.491Z,10.73
2022-11-20T18:36:22.067Z,10.00
2022-11-20T18:38:50.962Z,10.48
2022-11-20T18:41:40.685Z,11.02
2022-11-20T18:44:35.626Z,10.43
2022-11-20T18:47:04.848Z,10.88
2022-11-20T18:49:34.389Z,9.63
2022-11-20T18:52:00.908Z,9.63
2022-11-20T18:54:30.368Z,10.90
2022-11-20T18:56:56.855Z,10.63
2022-11-20T18:59:23.636Z,11.60
2022-11-20T19:01:50.278Z,10.73
2022-11-20T19:04:21.039Z,10.25
2022-11-20T19:06:52.821Z,10.57
2022-11-20T19:09:19.584Z,12.45
2022-11-20T19:11:46.089Z,11.63
2022-11-20T19:14:12.541Z,10.83
2022-11-20T19:16:39.216Z,10.38
2022-11-20T19:19:07.376Z,11.35
2022-11-20T19:21:34.944Z,10.93
2022-11-20T19:24:03.179Z,10.52
2022-11-20T19:26:30.159Z,10.80
2022-11-20T19:28:56.736Z,10.23
2022-11-20T19:31:26.793Z,11.50
2022-11-20T19:33:58.816Z,10.70
2022-11-20T19:36:28.317Z,10.43
2022-11-20T19:38:55.310Z,9.47
2022-11-20T19:41:31.426Z,9.90
2022-11-20T19:43:59.417Z,10.05
2022-11-20T19:46:27.602Z,11.07
2022-11-20T19:48:54.701Z,11.25
2022-11-20T19:51:24.882Z,9.93
2022-11-20T19:53:51.821Z,11.73
2022-11-20T19:56:18.759Z,11.18
2022-11-20T19:58:45.197Z,11.00
2022-11-20T20:01:20.070Z,10.48
2022-11-20T20:03:47.706Z,10.70
2022-11-20T20:06:17.004Z,11.57
2022-11-20T20:08:44.110Z,10.45
2022-11-20T20:11:14.328Z,10.50
2022-11-20T20:13:41.764Z,10.15
2022-11-20T20:16:10.206Z,9.00
2022-11-20T20:18:36.908Z,11.27
2022-11-20T20:21:08.528Z,11.30
2022-11-20T20:23:38.483Z,10.25
2022-11-20T20:26:07.437Z,11.85
2022-11-20T20:28:35.258Z,10.77
2022-11-20T20:31:09.683Z,11.57
2022-11-20T20:33:37.281Z,11.00
2022-11-20T20:36:08.955Z,11.48
2022-11-20T20:38:35.371Z,11.90
2022-11-20T20:41:02.223Z,11.67
2022-11-20T20:43:28.652Z,11.57
2022-11-20T20:45:55.551Z,12.02
2022-11-20T20:48:24.334Z,11.75
2022-11-20T20:50:59.314Z,12.15
2022-11-20T20:53:27.372Z,12.50
2022-11-20T20:55:58.157Z,11.45
2022-11-20T20:58:25.466Z,11.23
2022-11-20T21:00:52.244Z,12.30
2022-11-20T21:03:19.550Z,12.05
2022-11-20T21:05:46.993Z,12.07
2022-11-20T21:08:22.404Z,12.55
2022-11-20T21:10:49.809Z,11.98
2022-11-20T21:13:16.625Z,11.52
2022-11-20T21:15:45.700Z,12.30
2022-11-20T21:18:12.061Z,11.20
2022-11-20T21:20:59.963Z,12.40
2022-11-20T21:23:26.475Z,11.70
2022-11-20T21:25:52.919Z,10.75
2022-11-20T21:28:19.503Z,11.43
2022-11-20T21:30:46.595Z,10.87
2022-11-20T21:33:13.315Z,12.10
2022-11-20T21:35:41.287Z,11.50
2022-11-20T21:38:07.801Z,11.30
2022-11-20T21:40:34.180Z,12.40
2022-11-20T21:43:00.759Z,12.23
2022-11-20T21:45:27.210Z,11.07
2022-11-20T21:47:54.813Z,12.35
2022-11-20T21:50:24.598Z,12.23
2022-11-20T21:52:51.012Z,11.73
2022-11-20T21:55:17.520Z,10.57
2022-11-20T21:57:43.947Z,11.60
2022-11-20T22:00:12.218Z,11.75
2022-11-20T22:02:40.284Z,11.40
2022-11-20T22:05:08.309Z,11.82
2022-11-20T22:07:35.335Z,10.60
2022-11-20T22:10:01.796Z,11.80
2022-11-20T22:12:28.388Z,11.75
2022-11-20T22:14:54.914Z,11.23
2022-11-20T22:17:41.228Z,12.07
2022-11-20T22:20:08.579Z,11.90
2022-11-20T22:22:34.990Z,12.25
2022-11-20T22:25:01.341Z,13.65
2022-11-20T22:27:32.703Z,12.00
2022-11-20T22:29:59.116Z,13.63
2022-11-20T22:32:25.613Z,11.63
2022-11-20T22:34:52.150Z,11.70
2022-11-20T22:37:18.556Z,13.00
2022-11-20T22:39:44.992Z,12.98
2022-11-20T22:42:11.402Z,13.40
2022-11-20T22:44:37.785Z,12.60
2022-11-20T22:47:08.695Z,12.25
2022-11-20T22:49:37.618Z,12.65
2022-11-20T22:52:04.124Z,11.70
2022-11-20T22:54:30.542Z,13.20
2022-11-20T22:56:56.975Z,11.33
2022-11-20T22:59:23.478Z,13.07
2022-11-20T23:01:53.159Z,12.30
2022-11-20T23:04:21.941Z,12.88
2022-11-20T23:06:50.439Z,12.10
2022-11-20T23:09:17.513Z,12.70
2022-11-20T23:11:46.619Z,13.13
2022-11-20T23:14:15.326Z,11.45
2022-11-20T23:16:42.312Z,12.13
2022-11-20T23:19:14.582Z,11.27
2022-11-20T23:21:42.325Z,11.20
2022-11-20T23:24:09.750Z,11.48
2022-11-20T23:26:39.201Z,12.52
2022-11-20T23:29:06.502Z,14.02
2022-11-20T23:31:34.956Z,12.90
2022-11-20T23:34:01.636Z,10.90
2022-11-20T23:36:28.331Z,12.95
2022-11-20T23:38:54.693Z,11.70
2022-11-20T23:41:21.255Z,11.30
2022-11-20T23:43:47.660Z,11.13
2022-11-20T23:46:16.664Z,11.60
2022-11-20T23:48:45.229Z,11.75
2022-11-20T23:51:12.299Z,11.02
2022-11-20T23:53:38.754Z,11.77
2022-11-20T23:56:06.045Z,10.90
2022-11-20T23:58:34.777Z,10.93
